sensor_id;sensor_type;location;lat;lon;timestamp;pressure;altitude;pressure_sealevel;temperature;humidity
19748;BME280;10032;51.386;12.516;2023-07-20T00:02:05;99774.50;;;19.00;100.00
19748;BME280;10032;51.386;12.516;2023-07-20T00:04:33;99775.09;;;18.97;100.00
19748;BME280;10032;51.386;12.516;2023-07-20T00:06:58;99776.22;;;18.96;100.00
19748;BME280;10032;51.386;12.516;2023-07-20T00:09:26;99782.38;;;18.93;100.00
19748;BME280;10032;51.386;12.516;2023-07-20T00:11:53;99791.22;;;18.90;100.00
19748;BME280;10032;51.386;12.516;2023-07-20T00:14:19;99789.00;;;18.92;100.00
19748;BME280;10032;51.386;12.516;2023-07-20T00:16:49;99778.13;;;18.87;100.00
19748;BME280;10032;51.386;12.516;2023-07-20T00:19:24;99782.25;;;18.76;100.00
19748;BME280;10032;51.386;12.516;2023-07-20T00:21:50;99783.69;;;18.74;100.00
19748;BME280;10032;51.386;12.516;2023-07-20T00:24:15;99777.19;;;18.70;100.00
19748;BME280;10032;51.386;12.516;2023-07-20T00:26:41;99782.16;;;18.68;100.00
19748;BME280;10032;51.386;12.516;2023-07-20T00:29:06;99774.75;;;18.68;100.00
19748;BME280;10032;51.386;12.516;2023-07-20T00:31:32;99773.56;;;18.61;100.00
19748;BME280;10032;51.386;12.516;2023-07-20T00:33:57;99775.47;;;18.60;100.00
19748;BME280;10032;51.386;12.516;2023-07-20T00:36:22;99786.16;;;18.62;100.00
19748;BME280;10032;51.386;12.516;2023-07-20T00:38:48;99780.66;;;18.62;100.00
19748;BME280;10032;51.386;12.516;2023-07-20T00:41:13;99773.25;;;18.62;100.00
19748;BME280;10032;51.386;12.516;2023-07-20T00:43:39;99765.03;;;18.62;100.00
19748;BME280;10032;51.386;12.516;2023-07-20T00:46:04;99769.03;;;18.56;100.00
19748;BME280;10032;51.386;12.516;2023-07-20T00:48:31;99760.97;;;18.60;100.00
19748;BME280;10032;51.386;12.516;2023-07-20T00:50:58;99768.38;;;18.59;100.00
19748;BME280;10032;51.386;12.516;2023-07-20T00:53:25;99771.13;;;18.59;100.00
19748;BME280;10032;51.386;12.516;2023-07-20T00:55:51;99767.59;;;18.59;100.00
19748;BME280;10032;51.386;12.516;2023-07-20T00:58:16;99769.50;;;18.58;100.00
19748;BME280;10032;51.386;12.516;2023-07-20T01:00:42;99776.59;;;18.59;100.00
19748;BME280;10032;51.386;12.516;2023-07-20T01:03:07;99774.38;;;18.61;100.00
19748;BME280;10032;51.386;12.516;2023-07-20T01:05:41;99769.69;;;18.62;100.00
19748;BME280;10032;51.386;12.516;2023-07-20T01:08:14;99769.31;;;18.55;100.00
19748;BME280;10032;51.386;12.516;2023-07-20T01:10:53;99774.81;;;18.55;100.00
19748;BME280;10032;51.386;12.516;2023-07-20T01:13:21;99774.19;;;18.58;100.00
19748;BME280;10032;51.386;12.516;2023-07-20T01:15:56;99774.00;;;18.54;100.00
19748;BME280;10032;51.386;12.516;2023-07-20T01:18:22;99776.44;;;18.56;100.00
19748;BME280;10032;51.386;12.516;2023-07-20T01:20:47;99769.03;;;18.56;100.00
19748;BME280;10032;51.386;12.516;2023-07-20T01:23:28;99767.41;;;18.55;100.00
19748;BME280;10032;51.386;12.516;2023-07-20T01:31:39;99765.19;;;18.44;100.00
19748;BME280;10032;51.386;12.516;2023-07-20T01:34:08;99763.78;;;18.46;100.00
19748;BME280;10032;51.386;12.516;2023-07-20T01:36:37;99757.16;;;18.47;100.00
19748;BME280;10032;51.386;12.516;2023-07-20T01:39:03;99756.66;;;18.45;100.00
19748;BME280;10032;51.386;12.516;2023-07-20T01:41:30;99756.97;;;18.44;100.00
19748;BME280;10032;51.386;12.516;2023-07-20T01:43:59;99753.69;;;18.42;100.00
19748;BME280;10032;51.386;12.516;2023-07-20T01:46:24;99759.41;;;18.45;100.00
19748;BME280;10032;51.386;12.516;2023-07-20T01:48:50;99752.78;;;18.46;100.00
19748;BME280;10032;51.386;12.516;2023-07-20T01:51:16;99761.63;;;18.43;100.00
19748;BME280;10032;51.386;12.516;2023-07-20T01:53:43;99758.69;;;18.40;100.00
19748;BME280;10032;51.386;12.516;2023-07-20T01:56:08;99760.63;;;18.39;100.00
19748;BME280;10032;51.386;12.516;2023-07-20T01:58:34;99761.25;;;18.36;100.00
19748;BME280;10032;51.386;12.516;2023-07-20T02:01:00;99758.03;;;18.34;100.00
19748;BME280;10032;51.386;12.516;2023-07-20T02:03:26;99761.25;;;18.36;100.00
19748;BME280;10032;51.386;12.516;2023-07-20T02:05:52;99755.28;;;18.34;100.00
19748;BME280;10032;51.386;12.516;2023-07-20T02:08:17;99763.81;;;18.33;100.00
19748;BME280;10032;51.386;12.516;2023-07-20T02:10:46;99758.22;;;18.24;100.00
19748;BME280;10032;51.386;12.516;2023-07-20T02:13:11;99757.59;;;18.27;100.00
19748;BME280;10032;51.386;12.516;2023-07-20T02:15:37;99763.06;;;18.27;100.00
19748;BME280;10032;51.386;12.516;2023-07-20T02:18:02;99766.13;;;18.26;100.00
19748;BME280;10032;51.386;12.516;2023-07-20T02:20:28;99771.41;;;18.22;100.00
19748;BME280;10032;51.386;12.516;2023-07-20T02:22:54;99773.03;;;18.23;100.00
19748;BME280;10032;51.386;12.516;2023-07-20T02:25:19;99782.19;;;18.19;100.00
19748;BME280;10032;51.386;12.516;2023-07-20T02:27:45;99774.28;;;18.17;100.00
19748;BME280;10032;51.386;12.516;2023-07-20T02:30:10;99786.88;;;18.18;100.00
19748;BME280;10032;51.386;12.516;2023-07-20T02:32:36;99781.41;;;18.18;100.00
19748;BME280;10032;51.386;12.516;2023-07-20T02:35:02;99781.41;;;18.18;100.00
19748;BME280;10032;51.386;12.516;2023-07-20T02:37:28;99779.75;;;18.17;100.00
19748;BME280;10032;51.386;12.516;2023-07-20T02:39:54;99778.13;;;18.16;100.00
19748;BME280;10032;51.386;12.516;2023-07-20T02:42:20;99788.91;;;18.13;100.00
19748;BME280;10032;51.386;12.516;2023-07-20T02:44:48;99782.31;;;18.14;100.00
19748;BME280;10032;51.386;12.516;2023-07-20T02:47:13;99788.09;;;18.12;100.00
19748;BME280;10032;51.386;12.516;2023-07-20T02:49:39;99789.75;;;18.13;100.00
19748;BME280;10032;51.386;12.516;2023-07-20T02:52:04;99801.31;;;18.10;100.00
19748;BME280;10032;51.386;12.516;2023-07-20T02:54:30;99796.03;;;18.14;100.00
19748;BME280;10032;51.386;12.516;2023-07-20T02:56:56;99796.84;;;18.14;100.00
19748;BME280;10032;51.386;12.516;2023-07-20T02:59:21;99800.38;;;18.15;100.00
19748;BME280;10032;51.386;12.516;2023-07-20T03:01:47;99799.59;;;18.14;100.00
19748;BME280;10032;51.386;12.516;2023-07-20T03:04:12;99790.53;;;18.14;100.00
19748;BME280;10032;51.386;12.516;2023-07-20T03:06:38;99794.09;;;18.14;100.00
19748;BME280;10032;51.386;12.516;2023-07-20T03:09:04;99790.53;;;18.14;100.00
19748;BME280;10032;51.386;12.516;2023-07-20T03:11:29;99797.97;;;18.13;100.00
19748;BME280;10032;51.386;12.516;2023-07-20T03:13:55;99806.69;;;18.15;100.00
19748;BME280;10032;51.386;12.516;2023-07-20T03:16:21;99795.72;;;18.15;100.00
19748;BME280;10032;51.386;12.516;2023-07-20T03:18:47;99802.34;;;18.14;100.00
19748;BME280;10032;51.386;12.516;2023-07-20T03:21:12;99805.56;;;18.16;100.00
19748;BME280;10032;51.386;12.516;2023-07-20T03:23:39;99804.44;;;18.17;100.00
19748;BME280;10032;51.386;12.516;2023-07-20T03:26:04;99809.13;;;18.17;100.00
19748;BME280;10032;51.386;12.516;2023-07-20T03:28:29;99806.09;;;18.18;100.00
19748;BME280;10032;51.386;12.516;2023-07-20T03:30:58;99808.00;;;18.18;100.00
19748;BME280;10032;51.386;12.516;2023-07-20T03:33:28;99798.47;;;18.15;100.00
19748;BME280;10032;51.386;12.516;2023-07-20T03:35:55;99796.94;;;18.09;100.00
19748;BME280;10032;51.386;12.516;2023-07-20T03:38:21;99795.34;;;18.08;100.00
19748;BME280;10032;51.386;12.516;2023-07-20T03:40:54;99805.69;;;18.11;100.00
19748;BME280;10032;51.386;12.516;2023-07-20T03:43:21;99805.56;;;18.16;100.00
19748;BME280;10032;51.386;12.516;2023-07-20T03:45:46;99811.03;;;18.16;100.00
19748;BME280;10032;51.386;12.516;2023-07-20T03:48:15;99809.63;;;18.19;100.00
19748;BME280;10032;51.386;12.516;2023-07-20T03:50:41;99807.19;;;18.17;100.00
19748;BME280;10032;51.386;12.516;2023-07-20T03:53:07;99817.56;;;18.20;100.00
19748;BME280;10032;51.386;12.516;2023-07-20T03:55:32;99810.44;;;18.19;100.00
19748;BME280;10032;51.386;12.516;2023-07-20T03:57:57;99815.31;;;18.22;100.00
19748;BME280;10032;51.386;12.516;2023-07-20T04:00:23;99815.31;;;18.22;100.00
19748;BME280;10032;51.386;12.516;2023-07-20T04:02:49;99816.13;;;18.23;100.00
19748;BME280;10032;51.386;12.516;2023-07-20T04:05:14;99817.34;;;18.17;100.00
19748;BME280;10032;51.386;12.516;2023-07-20T04:07:39;99820.59;;;18.19;100.00
19748;BME280;10032;51.386;12.516;2023-07-20T04:10:05;99832.59;;;18.23;100.00
19748;BME280;10032;51.386;12.516;2023-07-20T04:12:31;99830.63;;;18.23;100.00
19748;BME280;10032;51.386;12.516;2023-07-20T04:14:56;99836.63;;;18.25;100.00
19748;BME280;10032;51.386;12.516;2023-07-20T04:17:21;99835.22;;;18.28;100.00
19748;BME280;10032;51.386;12.516;2023-07-20T04:19:47;99841.13;;;18.21;100.00
19748;BME280;10032;51.386;12.516;2023-07-20T04:22:12;99835.50;;;18.26;100.00
19748;BME280;10032;51.386;12.516;2023-07-20T04:24:41;99832.19;;;18.29;100.00
19748;BME280;10032;51.386;12.516;2023-07-20T04:27:06;99841.50;;;18.28;100.00
19748;BME280;10032;51.386;12.516;2023-07-20T04:29:32;99840.06;;;18.31;100.00
19748;BME280;10032;51.386;12.516;2023-07-20T04:31:57;99833.25;;;18.28;100.00
19748;BME280;10032;51.386;12.516;2023-07-20T04:34:22;99826.69;;;18.29;100.00
19748;BME280;10032;51.386;12.516;2023-07-20T04:36:48;99833.19;;;18.33;100.00
19748;BME280;10032;51.386;12.516;2023-07-20T04:39:13;99833.25;;;18.28;100.00
19748;BME280;10032;51.386;12.516;2023-07-20T04:41:38;99834.91;;;18.29;100.00
19748;BME280;10032;51.386;12.516;2023-07-20T04:44:04;99836.00;;;18.28;100.00
19748;BME280;10032;51.386;12.516;2023-07-20T04:46:29;99834.38;;;18.27;100.00
19748;BME280;10032;51.386;12.516;2023-07-20T04:48:54;99830.53;;;18.28;100.00
19748;BME280;10032;51.386;12.516;2023-07-20T04:51:20;99835.41;;;18.31;100.00
19748;BME280;10032;51.386;12.516;2023-07-20T04:53:46;99833.06;;;18.25;100.00
19748;BME280;10032;51.386;12.516;2023-07-20T04:56:12;99830.53;;;18.28;100.00
19748;BME280;10032;51.386;12.516;2023-07-20T04:58:37;99833.78;;;18.30;100.00
19748;BME280;10032;51.386;12.516;2023-07-20T05:01:02;99836.53;;;18.30;100.00
19748;BME280;10032;51.386;12.516;2023-07-20T05:03:28;99841.00;;;18.26;100.00
19748;BME280;10032;51.386;12.516;2023-07-20T05:05:53;99840.69;;;18.28;100.00
19748;BME280;10032;51.386;12.516;2023-07-20T05:08:19;99837.25;;;18.22;100.00
19748;BME280;10032;51.386;12.516;2023-07-20T05:10:44;99841.75;;;18.18;100.00
19748;BME280;10032;51.386;12.516;2023-07-20T05:13:10;99839.78;;;18.19;100.00
19748;BME280;10032;51.386;12.516;2023-07-20T05:15:35;99839.38;;;18.25;100.00
19748;BME280;10032;51.386;12.516;2023-07-20T05:18:01;99852.38;;;18.33;100.00
19748;BME280;10032;51.386;12.516;2023-07-20T05:20:26;99848.84;;;18.33;100.00
19748;BME280;10032;51.386;12.516;2023-07-20T05:22:52;99845.38;;;18.27;100.00
19748;BME280;10032;51.386;12.516;2023-07-20T05:25:18;99841.13;;;18.35;100.00
19748;BME280;10032;51.386;12.516;2023-07-20T05:27:44;99842.81;;;18.44;100.00
19748;BME280;10032;51.386;12.516;2023-07-20T05:30:10;99844.66;;;18.49;100.00
19748;BME280;10032;51.386;12.516;2023-07-20T05:32:36;99851.47;;;18.51;100.00
19748;BME280;10032;51.386;12.516;2023-07-20T05:35:01;99851.16;;;18.53;100.00
19748;BME280;10032;51.386;12.516;2023-07-20T05:37:27;99850.53;;;18.56;100.00
19748;BME280;10032;51.386;12.516;2023-07-20T05:39:52;99855.06;;;18.60;100.00
19748;BME280;10032;51.386;12.516;2023-07-20T05:42:17;99858.34;;;18.62;100.00
19748;BME280;10032;51.386;12.516;2023-07-20T05:44:43;99855.06;;;18.74;100.00
19748;BME280;10032;51.386;12.516;2023-07-20T05:47:08;99858.59;;;18.74;100.00
19748;BME280;10032;51.386;12.516;2023-07-20T05:49:34;99848.75;;;18.73;100.00
19748;BME280;10032;51.386;12.516;2023-07-20T05:52:00;99850.88;;;18.76;100.00
19748;BME280;10032;51.386;12.516;2023-07-20T05:54:26;99862.78;;;18.72;100.00
19748;BME280;10032;51.386;12.516;2023-07-20T05:56:52;99864.59;;;18.76;100.00
19748;BME280;10032;51.386;12.516;2023-07-20T05:59:18;99862.53;;;18.82;100.00
19748;BME280;10032;51.386;12.516;2023-07-20T06:01:45;99867.09;;;18.86;100.00
19748;BME280;10032;51.386;12.516;2023-07-20T06:04:11;99873.09;;;18.88;100.00
19748;BME280;10032;51.386;12.516;2023-07-20T06:06:36;99864.09;;;18.96;100.00
19748;BME280;10032;51.386;12.516;2023-07-20T06:09:02;99866.38;;;18.94;100.00
19748;BME280;10032;51.386;12.516;2023-07-20T06:11:35;99874.47;;;18.99;100.00
19748;BME280;10032;51.386;12.516;2023-07-20T06:14:00;99877.84;;;18.96;100.00
19748;BME280;10032;51.386;12.516;2023-07-20T06:16:25;99868.16;;;18.99;100.00
19748;BME280;10032;51.386;12.516;2023-07-20T06:18:51;99876.47;;;19.07;100.00
19748;BME280;10032;51.386;12.516;2023-07-20T06:21:16;99878.13;;;19.08;100.00
19748;BME280;10032;51.386;12.516;2023-07-20T06:23:41;99870.34;;;19.10;100.00
19748;BME280;10032;51.386;12.516;2023-07-20T06:26:07;99871.66;;;19.13;100.00
19748;BME280;10032;51.386;12.516;2023-07-20T06:28:33;99872.59;;;19.22;100.00
19748;BME280;10032;51.386;12.516;2023-07-20T06:31:04;99870.25;;;19.37;100.00
19748;BME280;10032;51.386;12.516;2023-07-20T06:33:30;99874.47;;;19.74;100.00
19748;BME280;10032;51.386;12.516;2023-07-20T06:35:55;99870.97;;;19.82;100.00
19748;BME280;10032;51.386;12.516;2023-07-20T06:38:22;99865.41;;;20.04;100.00
19748;BME280;10032;51.386;12.516;2023-07-20T06:40:49;99877.69;;;19.98;100.00
19748;BME280;10032;51.386;12.516;2023-07-20T06:43:15;99874.19;;;19.75;100.00
19748;BME280;10032;51.386;12.516;2023-07-20T06:45:41;99876.56;;;19.68;100.00
19748;BME280;10032;51.386;12.516;2023-07-20T06:48:07;99872.69;;;19.69;100.00
19748;BME280;10032;51.386;12.516;2023-07-20T06:50:32;99879.19;;;19.73;100.00
19748;BME280;10032;51.386;12.516;2023-07-20T06:52:58;99878.38;;;19.73;100.00
19748;BME280;10032;51.386;12.516;2023-07-20T06:55:24;99879.06;;;19.78;100.00
19748;BME280;10032;51.386;12.516;2023-07-20T06:57:49;99879.75;;;19.92;100.00
19748;BME280;10032;51.386;12.516;2023-07-20T07:00:15;99877.53;;;20.03;100.00
19748;BME280;10032;51.386;12.516;2023-07-20T07:02:40;99866.84;;;20.01;100.00
19748;BME280;10032;51.386;12.516;2023-07-20T07:05:06;99867.81;;;19.97;100.00
19748;BME280;10032;51.386;12.516;2023-07-20T07:07:31;99871.22;;;20.02;100.00
19748;BME280;10032;51.386;12.516;2023-07-20T07:09:57;99871.22;;;20.50;100.00
19748;BME280;10032;51.386;12.516;2023-07-20T07:12:22;99867.38;;;20.85;100.00
19748;BME280;10032;51.386;12.516;2023-07-20T07:14:48;99858.94;;;21.32;100.00
19748;BME280;10032;51.386;12.516;2023-07-20T07:17:13;99859.97;;;21.65;100.00
19748;BME280;10032;51.386;12.516;2023-07-20T07:19:39;99862.38;;;21.84;100.00
19748;BME280;10032;51.386;12.516;2023-07-20T07:22:06;99868.75;;;21.67;100.00
19748;BME280;10032;51.386;12.516;2023-07-20T07:24:31;99865.81;;;21.64;100.00
19748;BME280;10032;51.386;12.516;2023-07-20T07:27:02;99869.47;;;21.39;100.00
19748;BME280;10032;51.386;12.516;2023-07-20T07:29:28;99869.84;;;21.12;100.00
19748;BME280;10032;51.386;12.516;2023-07-20T07:31:54;99869.19;;;21.06;100.00
19748;BME280;10032;51.386;12.516;2023-07-20T07:34:19;99871.94;;;21.06;100.00
19748;BME280;10032;51.386;12.516;2023-07-20T07:36:45;99883.44;;;20.91;100.00
19748;BME280;10032;51.386;12.516;2023-07-20T07:39:10;99873.00;;;20.71;100.00
19748;BME280;10032;51.386;12.516;2023-07-20T07:41:36;99885.16;;;20.70;100.00
19748;BME280;10032;51.386;12.516;2023-07-20T07:44:01;99881.78;;;20.73;100.00
19748;BME280;10032;51.386;12.516;2023-07-20T07:46:27;99872.69;;;20.56;100.00
19748;BME280;10032;51.386;12.516;2023-07-20T07:48:52;99888.19;;;20.43;100.00
19748;BME280;10032;51.386;12.516;2023-07-20T07:51:18;99891.13;;;20.47;100.00
19748;BME280;10032;51.386;12.516;2023-07-20T07:53:45;99888.38;;;20.47;100.00
19748;BME280;10032;51.386;12.516;2023-07-20T07:56:11;99890.66;;;20.53;100.00
19748;BME280;10032;51.386;12.516;2023-07-20T07:58:36;99889.06;;;20.69;100.00
19748;BME280;10032;51.386;12.516;2023-07-20T08:01:02;99892.81;;;20.73;100.00
19748;BME280;10032;51.386;12.516;2023-07-20T08:03:27;99892.16;;;20.85;100.00
19748;BME280;10032;51.386;12.516;2023-07-20T08:05:56;99891.22;;;20.89;100.00
19748;BME280;10032;51.386;12.516;2023-07-20T08:08:22;99893.16;;;20.97;100.00
19748;BME280;10032;51.386;12.516;2023-07-20T08:10:48;99892.34;;;20.97;100.00
19748;BME280;10032;51.386;12.516;2023-07-20T08:13:13;99896.56;;;21.11;100.00
19748;BME280;10032;51.386;12.516;2023-07-20T08:15:39;99905.00;;;21.06;100.00
19748;BME280;10032;51.386;12.516;2023-07-20T08:18:04;99893.47;;;21.30;100.00
19748;BME280;10032;51.386;12.516;2023-07-20T08:20:30;99895.22;;;21.60;100.00
19748;BME280;10032;51.386;12.516;2023-07-20T08:22:57;99895.41;;;22.09;100.00
19748;BME280;10032;51.386;12.516;2023-07-20T08:25:25;99885.91;;;22.56;100.00
19748;BME280;10032;51.386;12.516;2023-07-20T08:27:50;99897.25;;;22.84;100.00
19748;BME280;10032;51.386;12.516;2023-07-20T08:30:16;99906.03;;;22.19;100.00
19748;BME280;10032;51.386;12.516;2023-07-20T08:32:41;99897.63;;;22.16;100.00
19748;BME280;10032;51.386;12.516;2023-07-20T08:35:07;99893.03;;;22.28;100.00
19748;BME280;10032;51.386;12.516;2023-07-20T08:37:32;99900.16;;;22.29;100.00
19748;BME280;10032;51.386;12.516;2023-07-20T08:39:58;99893.34;;;22.27;100.00
19748;BME280;10032;51.386;12.516;2023-07-20T08:42:24;99897.13;;;22.22;100.00
19748;BME280;10032;51.386;12.516;2023-07-20T08:44:50;99889.84;;;22.18;100.00
19748;BME280;10032;51.386;12.516;2023-07-20T08:47:18;99892.16;;;22.07;100.00
19748;BME280;10032;51.386;12.516;2023-07-20T08:49:48;99890.09;;;21.96;100.00
19748;BME280;10032;51.386;12.516;2023-07-20T08:52:13;99892.03;;;21.95;100.00
19748;BME280;10032;51.386;12.516;2023-07-20T08:54:40;99890.09;;;21.87;100.00
19748;BME280;10032;51.386;12.516;2023-07-20T08:57:05;99892.00;;;22.04;100.00
19748;BME280;10032;51.386;12.516;2023-07-20T08:59:31;99883.25;;;22.31;100.00
19748;BME280;10032;51.386;12.516;2023-07-20T09:01:58;99891.97;;;22.50;100.00
19748;BME280;10032;51.386;12.516;2023-07-20T09:04:24;99888.31;;;22.58;100.00
19748;BME280;10032;51.386;12.516;2023-07-20T09:06:50;99891.72;;;22.63;100.00
19748;BME280;10032;51.386;12.516;2023-07-20T09:09:15;99889.78;;;22.84;100.00
19748;BME280;10032;51.386;12.516;2023-07-20T09:11:41;99890.59;;;23.05;100.00
19748;BME280;10032;51.386;12.516;2023-07-20T09:14:07;99884.72;;;23.27;100.00
19748;BME280;10032;51.386;12.516;2023-07-20T09:16:47;99887.94;;;23.29;100.00
19748;BME280;10032;51.386;12.516;2023-07-20T09:19:15;99890.66;;;23.17;100.00
19748;BME280;10032;51.386;12.516;2023-07-20T09:21:44;99876.91;;;23.74;100.00
19748;BME280;10032;51.386;12.516;2023-07-20T09:24:10;99880.13;;;24.20;100.00
19748;BME280;10032;51.386;12.516;2023-07-20T09:26:41;99879.41;;;24.11;100.00
19748;BME280;10032;51.386;12.516;2023-07-20T09:29:07;99877.91;;;24.02;98.58
19748;BME280;10032;51.386;12.516;2023-07-20T09:31:34;99875.66;;;23.83;96.79
19748;BME280;10032;51.386;12.516;2023-07-20T09:33:59;99878.59;;;23.66;96.50
19748;BME280;10032;51.386;12.516;2023-07-20T09:36:27;99876.97;;;23.53;95.29
19748;BME280;10032;51.386;12.516;2023-07-20T09:38:53;99885.38;;;23.45;93.47
19748;BME280;10032;51.386;12.516;2023-07-20T09:41:19;99881.72;;;23.20;93.56
19748;BME280;10032;51.386;12.516;2023-07-20T09:43:45;99892.44;;;23.13;93.29
19748;BME280;10032;51.386;12.516;2023-07-20T09:46:11;99886.88;;;23.01;94.16
19748;BME280;10032;51.386;12.516;2023-07-20T09:48:36;99890.78;;;23.00;95.41
19748;BME280;10032;51.386;12.516;2023-07-20T09:51:02;99890.09;;;23.03;96.63
19748;BME280;10032;51.386;12.516;2023-07-20T09:53:28;99904.81;;;22.95;97.70
19748;BME280;10032;51.386;12.516;2023-07-20T09:55:55;99906.53;;;23.00;98.52
19748;BME280;10032;51.386;12.516;2023-07-20T09:58:21;99908.03;;;22.97;99.24
19748;BME280;10032;51.386;12.516;2023-07-20T10:00:48;99921.59;;;22.90;100.00
19748;BME280;10032;51.386;12.516;2023-07-20T10:03:19;99930.28;;;22.80;100.00
19748;BME280;10032;51.386;12.516;2023-07-20T10:05:48;99936.28;;;22.53;100.00
19748;BME280;10032;51.386;12.516;2023-07-20T10:08:16;99942.25;;;22.26;100.00
19748;BME280;10032;51.386;12.516;2023-07-20T10:10:44;99927.75;;;21.92;100.00
19748;BME280;10032;51.386;12.516;2023-07-20T10:13:16;99935.28;;;21.74;100.00
19748;BME280;10032;51.386;12.516;2023-07-20T10:15:50;99949.88;;;21.58;100.00
19748;BME280;10032;51.386;12.516;2023-07-20T10:20:51;99941.94;;;21.39;100.00
19748;BME280;10032;51.386;12.516;2023-07-20T10:23:17;99951.69;;;21.11;100.00
19748;BME280;10032;51.386;12.516;2023-07-20T10:25:43;99952.00;;;21.10;100.00
19748;BME280;10032;51.386;12.516;2023-07-20T10:28:10;99946.00;;;21.16;100.00
19748;BME280;10032;51.386;12.516;2023-07-20T10:30:37;99946.34;;;21.40;100.00
19748;BME280;10032;51.386;12.516;2023-07-20T10:33:04;99946.50;;;21.44;100.00
19748;BME280;10032;51.386;12.516;2023-07-20T10:35:30;99938.84;;;21.49;100.00
19748;BME280;10032;51.386;12.516;2023-07-20T10:38:03;99930.28;;;21.34;100.00
19748;BME280;10032;51.386;12.516;2023-07-20T10:40:33;99931.75;;;21.31;100.00
19748;BME280;10032;51.386;12.516;2023-07-20T10:43:09;99937.56;;;21.47;100.00
19748;BME280;10032;51.386;12.516;2023-07-20T10:48:24;99937.56;;;21.38;100.00
19748;BME280;10032;51.386;12.516;2023-07-20T10:51:09;99937.22;;;21.57;100.00
19748;BME280;10032;51.386;12.516;2023-07-20T10:53:35;99935.28;;;21.57;100.00
19748;BME280;10032;51.386;12.516;2023-07-20T10:56:27;99926.31;;;21.86;100.00
19748;BME280;10032;51.386;12.516;2023-07-20T10:58:58;99926.31;;;21.86;100.00
19748;BME280;10032;51.386;12.516;2023-07-20T11:01:28;99936.09;;;21.75;100.00
19748;BME280;10032;51.386;12.516;2023-07-20T11:03:57;99933.81;;;21.77;100.00
19748;BME280;10032;51.386;12.516;2023-07-20T11:08:48;99925.69;;;21.63;100.00
19748;BME280;10032;51.386;12.516;2023-07-20T11:11:24;99918.88;;;21.78;100.00
19748;BME280;10032;51.386;12.516;2023-07-20T11:14:04;99933.31;;;21.83;100.00
19748;BME280;10032;51.386;12.516;2023-07-20T11:16:44;99920.34;;;21.67;100.00
19748;BME280;10032;51.386;12.516;2023-07-20T11:19:24;99932.19;;;21.59;100.00
19748;BME280;10032;51.386;12.516;2023-07-20T11:21:51;99926.53;;;21.72;100.00
19748;BME280;10032;51.386;12.516;2023-07-20T11:24:17;99919.31;;;21.97;100.00
19748;BME280;10032;51.386;12.516;2023-07-20T11:26:48;99921.69;;;22.15;100.00
19748;BME280;10032;51.386;12.516;2023-07-20T11:29:15;99925.19;;;22.24;100.00
19748;BME280;10032;51.386;12.516;2023-07-20T11:31:42;99929.59;;;22.25;100.00
19748;BME280;10032;51.386;12.516;2023-07-20T11:34:19;99935.28;;;22.20;100.00
19748;BME280;10032;51.386;12.516;2023-07-20T11:36:47;99941.00;;;22.15;100.00
19748;BME280;10032;51.386;12.516;2023-07-20T11:39:14;99946.75;;;21.93;100.00
19748;BME280;10032;51.386;12.516;2023-07-20T11:41:51;99934.22;;;22.04;100.00
19748;BME280;10032;51.386;12.516;2023-07-20T11:44:17;99946.19;;;22.08;100.00
19748;BME280;10032;51.386;12.516;2023-07-20T11:46:44;99945.47;;;21.91;100.00
19748;BME280;10032;51.386;12.516;2023-07-20T11:49:10;99955.69;;;21.90;100.00
19748;BME280;10032;51.386;12.516;2023-07-20T11:51:35;99951.78;;;21.91;100.00
19748;BME280;10032;51.386;12.516;2023-07-20T11:54:02;99942.72;;;21.91;100.00
19748;BME280;10032;51.386;12.516;2023-07-20T11:56:28;99935.16;;;22.08;100.00
19748;BME280;10032;51.386;12.516;2023-07-20T11:59:00;99942.38;;;22.30;100.00
19748;BME280;10032;51.386;12.516;2023-07-20T12:01:28;99940.84;;;22.49;100.00
19748;BME280;10032;51.386;12.516;2023-07-20T12:04:02;99942.34;;;22.76;100.00
19748;BME280;10032;51.386;12.516;2023-07-20T12:06:28;99940.28;;;22.64;100.00
19748;BME280;10032;51.386;12.516;2023-07-20T12:08:55;99942.41;;;22.67;100.00
19748;BME280;10032;51.386;12.516;2023-07-20T12:11:38;99941.38;;;22.72;100.00
19748;BME280;10032;51.386;12.516;2023-07-20T12:14:06;99952.56;;;22.75;100.00
19748;BME280;10032;51.386;12.516;2023-07-20T12:16:32;99944.00;;;22.68;100.00
19748;BME280;10032;51.386;12.516;2023-07-20T12:19:02;99949.59;;;22.60;100.00
19748;BME280;10032;51.386;12.516;2023-07-20T12:21:29;99940.53;;;22.42;100.00
19748;BME280;10032;51.386;12.516;2023-07-20T12:23:56;99946.28;;;22.29;100.00
19748;BME280;10032;51.386;12.516;2023-07-20T12:26:22;99942.25;;;22.26;100.00
19748;BME280;10032;51.386;12.516;2023-07-20T12:28:49;99946.56;;;22.36;100.00
19748;BME280;10032;51.386;12.516;2023-07-20T12:31:14;99949.66;;;22.72;100.00
19748;BME280;10032;51.386;12.516;2023-07-20T12:33:40;99951.78;;;22.95;100.00
19748;BME280;10032;51.386;12.516;2023-07-20T12:36:07;99944.59;;;23.23;100.00
19748;BME280;10032;51.386;12.516;2023-07-20T12:38:33;99947.72;;;23.42;100.00
19748;BME280;10032;51.386;12.516;2023-07-20T12:41:00;99953.13;;;23.39;100.00
19748;BME280;10032;51.386;12.516;2023-07-20T12:43:26;99946.22;;;23.24;100.00
19748;BME280;10032;51.386;12.516;2023-07-20T12:45:52;99948.91;;;23.12;100.00
19748;BME280;10032;51.386;12.516;2023-07-20T12:48:17;99945.25;;;23.00;100.00
19748;BME280;10032;51.386;12.516;2023-07-20T12:50:43;99946.50;;;23.31;100.00
19748;BME280;10032;51.386;12.516;2023-07-20T12:53:08;99948.25;;;24.01;100.00